createdAt,value
2017-11-07T00:01:58.563Z,99850.69
2017-11-07T00:04:32.881Z,99849.92
2017-11-07T00:07:06.988Z,99847.31
2017-11-07T00:09:42.408Z,99848.75
2017-11-07T00:12:13.781Z,99844.12
2017-11-07T00:14:45.462Z,99845.48
2017-11-07T00:17:16.862Z,99844.39
2017-11-07T00:19:49.063Z,99843.16
2017-11-07T00:22:20.617Z,99842.25
2017-11-07T00:24:55.935Z,99843.78
2017-11-07T00:27:27.433Z,99841.15
2017-11-07T00:29:59.773Z,99843.39
2017-11-07T00:32:32.636Z,99844.17
2017-11-07T00:35:08.938Z,99852.34
2017-11-07T00:37:40.425Z,99846.70
2017-11-07T00:40:11.694Z,99843.17
2017-11-07T00:42:42.867Z,99846.38
2017-11-07T00:45:21.990Z,99847.91
2017-11-07T00:47:55.144Z,99837.17
2017-11-07T00:53:19.268Z,99836.81
2017-11-07T00:55:51.437Z,99842.26
2017-11-07T00:58:23.074Z,99844.06
2017-11-07T01:00:55.157Z,99845.59
2017-11-07T01:03:31.116Z,99846.68
2017-11-07T01:06:06.484Z,99848.77
2017-11-07T01:08:42.120Z,99846.49
2017-11-07T01:11:16.713Z,99843.29
2017-11-07T01:13:50.527Z,99838.47
2017-11-07T01:16:21.471Z,99838.89
2017-11-07T01:18:52.622Z,99833.29
2017-11-07T01:21:24.326Z,99829.55
2017-11-07T01:23:55.019Z,99834.17
2017-11-07T01:26:25.852Z,99834.11
2017-11-07T01:28:56.897Z,99826.04
2017-11-07T01:31:27.593Z,99826.97
2017-11-07T01:33:59.518Z,99828.25
2017-11-07T01:36:30.445Z,99821.54
2017-11-07T01:39:02.951Z,99822.11
2017-11-07T01:41:33.743Z,99816.98
2017-11-07T01:44:04.909Z,99812.56
2017-11-07T01:46:36.040Z,99815.30
2017-11-07T01:49:07.067Z,99813.73
2017-11-07T01:51:40.046Z,99818.11
2017-11-07T01:54:10.896Z,99819.15
2017-11-07T01:56:41.587Z,99810.73
2017-11-07T01:59:13.080Z,99809.23
2017-11-07T02:01:44.517Z,99822.12
2017-11-07T02:04:15.980Z,99825.39
2017-11-07T02:06:47.082Z,99825.84
2017-11-07T02:09:18.128Z,99827.05
2017-11-07T02:11:53.258Z,99827.10
2017-11-07T02:14:24.184Z,99827.05
2017-11-07T02:16:56.490Z,99819.15
2017-11-07T02:19:32.645Z,99817.52
2017-11-07T02:22:05.068Z,99828.63
2017-11-07T02:24:36.918Z,99822.73
2017-11-07T02:27:17.485Z,99820.84
2017-11-07T02:29:48.783Z,99817.46
2017-11-07T02:32:20.419Z,99820.30
2017-11-07T02:34:53.656Z,99823.47
2017-11-07T02:37:25.398Z,99824.80
2017-11-07T02:39:59.396Z,99819.50
2017-11-07T02:42:30.600Z,99818.81
2017-11-07T02:45:02.037Z,99823.25
2017-11-07T02:47:32.673Z,99825.27
2017-11-07T02:50:03.381Z,99819.43
2017-11-07T02:52:34.233Z,99815.37
2017-11-07T02:55:05.056Z,99806.16
2017-11-07T02:57:37.367Z,99802.25
2017-11-07T03:00:09.661Z,99800.31
2017-11-07T03:02:42.979Z,99793.96
2017-11-07T03:05:14.321Z,99793.49
2017-11-07T03:07:45.547Z,99792.91
2017-11-07T03:10:19.734Z,99788.69
2017-11-07T03:12:50.540Z,99781.28
2017-11-07T03:15:25.609Z,99784.34
2017-11-07T03:17:57.310Z,99781.38
2017-11-07T03:20:28.316Z,99784.41
2017-11-07T03:22:59.491Z,99788.40
2017-11-07T03:25:32.600Z,99784.81
2017-11-07T03:28:04.925Z,99786.97
2017-11-07T03:30:39.086Z,99782.69
2017-11-07T03:33:12.327Z,99783.64
2017-11-07T03:35:44.129Z,99779.67
2017-11-07T03:38:15.210Z,99777.20
2017-11-07T03:40:45.842Z,99779.75
2017-11-07T03:43:16.875Z,99778.03
2017-11-07T03:45:47.778Z,99770.53
2017-11-07T03:48:19.227Z,99763.27
2017-11-07T03:50:49.771Z,99764.52
2017-11-07T03:53:21.615Z,99762.20
2017-11-07T03:55:54.800Z,99759.34
2017-11-07T03:58:25.969Z,99755.11
2017-11-07T04:00:58.428Z,99759.89
2017-11-07T04:03:29.999Z,99756.08
2017-11-07T04:06:08.526Z,99755.09
2017-11-07T04:08:43.651Z,99755.08
2017-11-07T04:11:23.603Z,99751.41
2017-11-07T04:13:56.430Z,99751.33
2017-11-07T04:19:14.583Z,99745.02
2017-11-07T04:21:48.309Z,99743.14
2017-11-07T04:24:21.765Z,99741.71
2017-11-07T04:26:55.247Z,99736.53
2017-11-07T04:29:25.978Z,99727.98
2017-11-07T04:31:57.052Z,99727.05
2017-11-07T04:34:28.148Z,99725.08
2017-11-07T04:36:59.045Z,99721.36
2017-11-07T04:39:29.677Z,99723.57
2017-11-07T04:42:01.967Z,99721.20
2017-11-07T04:44:32.814Z,99722.02
2017-11-07T04:47:03.577Z,99719.34
2017-11-07T04:49:35.788Z,99709.94
2017-11-07T04:52:06.522Z,99712.22
2017-11-07T04:54:37.644Z,99713.34
2017-11-07T04:57:08.689Z,99720.97
2017-11-07T04:59:39.400Z,99719.03
2017-11-07T05:02:10.955Z,99722.64
2017-11-07T05:04:45.827Z,99722.12
2017-11-07T05:07:16.787Z,99714.55
2017-11-07T05:09:48.526Z,99717.52
2017-11-07T05:12:19.692Z,99717.13
2017-11-07T05:14:51.266Z,99712.26
2017-11-07T05:17:22.156Z,99718.69
2017-11-07T05:19:53.623Z,99713.58
2017-11-07T05:22:26.236Z,99717.13
2017-11-07T05:24:57.713Z,99716.75
2017-11-07T05:27:28.876Z,99721.38
2017-11-07T05:30:00.150Z,99716.05
2017-11-07T05:32:32.643Z,99703.09
2017-11-07T05:35:04.466Z,99703.50
2017-11-07T05:37:39.760Z,99705.28
2017-11-07T05:40:23.686Z,99712.33
2017-11-07T05:42:54.485Z,99704.25
2017-11-07T05:45:28.387Z,99705.49
2017-11-07T05:47:59.512Z,99701.42
2017-11-07T05:50:30.699Z,99703.25
2017-11-07T05:53:03.550Z,99705.02
2017-11-07T05:55:35.666Z,99702.27
2017-11-07T05:58:07.115Z,99702.85
2017-11-07T06:00:38.081Z,99699.95
2017-11-07T06:03:11.538Z,99705.95
2017-11-07T06:05:45.623Z,99712.57
2017-11-07T06:08:20.886Z,99706.53
2017-11-07T06:10:53.212Z,99715.67
2017-11-07T06:13:28.543Z,99709.83
2017-11-07T06:16:02.475Z,99710.44
2017-11-07T06:18:33.443Z,99706.91
2017-11-07T06:21:05.176Z,99703.63
2017-11-07T06:23:40.863Z,99701.30
2017-11-07T06:26:11.639Z,99696.97
2017-11-07T06:28:43.659Z,99700.22
2017-11-07T06:31:14.711Z,99703.94
2017-11-07T06:33:45.579Z,99708.19
2017-11-07T06:36:16.827Z,99706.70
2017-11-07T06:38:47.593Z,99705.94
2017-11-07T06:41:20.132Z,99694.20
2017-11-07T06:43:52.586Z,99692.19
2017-11-07T06:46:24.255Z,99693.55
2017-11-07T06:48:56.662Z,99690.83
2017-11-07T06:51:28.156Z,99688.69
2017-11-07T06:54:05.053Z,99683.91
2017-11-07T06:56:36.106Z,99683.30
2017-11-07T06:59:11.636Z,99674.58
2017-11-07T07:01:43.963Z,99675.27
2017-11-07T07:04:15.147Z,99685.16
2017-11-07T07:06:45.895Z,99679.54
2017-11-07T07:09:17.258Z,99681.84
2017-11-07T07:11:50.575Z,99685.69
2017-11-07T07:14:26.627Z,99683.06
2017-11-07T07:16:57.551Z,99687.55
2017-11-07T07:19:37.243Z,99689.85
2017-11-07T07:22:09.073Z,99688.48
2017-11-07T07:24:39.819Z,99686.77
2017-11-07T07:27:10.479Z,99681.53
2017-11-07T07:29:41.432Z,99681.77
2017-11-07T07:32:14.124Z,99675.92
2017-11-07T07:34:51.484Z,99680.74
2017-11-07T07:37:26.749Z,99678.07
2017-11-07T07:39:59.750Z,99678.30
2017-11-07T07:42:31.588Z,99679.61
2017-11-07T07:45:02.557Z,99674.30
2017-11-07T07:47:33.680Z,99668.22
2017-11-07T07:50:09.235Z,99670.34
2017-11-07T07:52:45.178Z,99670.09
2017-11-07T07:55:18.110Z,99659.59
2017-11-07T07:58:02.254Z,99651.38
2017-11-07T08:00:35.589Z,99656.95
2017-11-07T08:03:07.749Z,99663.42
2017-11-07T08:05:39.298Z,99671.58
2017-11-07T08:08:10.721Z,99667.33
2017-11-07T08:10:46.033Z,99672.05
2017-11-07T08:13:20.703Z,99671.66
2017-11-07T08:15:56.113Z,99662.47
2017-11-07T08:18:32.880Z,99665.87
2017-11-07T08:25:49.394Z,99660.81
2017-11-07T08:28:28.919Z,99659.23
2017-11-07T08:31:02.064Z,99654.69
2017-11-07T08:33:33.826Z,99651.89
2017-11-07T08:36:06.809Z,99650.19
2017-11-07T08:38:37.467Z,99658.01
2017-11-07T08:41:09.932Z,99660.69
2017-11-07T08:43:43.259Z,99650.95
2017-11-07T08:46:44.295Z,99651.07
2017-11-07T08:49:16.842Z,99649.83
2017-11-07T08:52:17.615Z,99646.42
2017-11-07T08:58:43.011Z,99637.40
2017-11-07T09:01:14.065Z,99636.13
2017-11-07T09:09:55.045Z,99627.59
2017-11-07T09:13:39.637Z,99637.43
2017-11-07T09:16:17.649Z,99624.98
2017-11-07T09:18:48.333Z,99621.22
2017-11-07T09:21:20.772Z,99623.81
2017-11-07T09:23:54.274Z,99616.86
2017-11-07T09:26:30.192Z,99611.47
2017-11-07T09:29:10.467Z,99615.56
2017-11-07T09:31:42.710Z,99605.33
2017-11-07T09:34:23.499Z,99605.52
2017-11-07T09:36:54.595Z,99604.43
2017-11-07T09:39:25.942Z,99597.07
2017-11-07T09:41:57.300Z,99596.70
2017-11-07T09:44:29.788Z,99591.09
2017-11-07T09:47:02.563Z,99595.52
2017-11-07T09:49:34.314Z,99595.39
2017-11-07T09:52:06.521Z,99590.52
2017-11-07T09:54:38.006Z,99595.17
2017-11-07T09:57:08.751Z,99594.70
2017-11-07T10:02:01.789Z,99587.22
2017-11-07T10:04:33.554Z,99586.80
2017-11-07T10:07:09.853Z,99595.53
2017-11-07T10:09:41.284Z,99590.68
2017-11-07T10:12:12.244Z,99582.70
2017-11-07T10:14:44.639Z,99582.27
2017-11-07T10:17:18.689Z,99580.28
2017-11-07T10:19:49.742Z,99572.63
2017-11-07T10:22:21.427Z,99568.78
2017-11-07T10:24:52.873Z,99564.70
2017-11-07T10:27:25.361Z,99556.69
2017-11-07T10:29:57.529Z,99556.92
2017-11-07T10:32:28.334Z,99543.78
2017-11-07T10:34:59.551Z,99539.30
2017-11-07T10:37:30.821Z,99538.35
2017-11-07T10:40:03.227Z,99537.13
2017-11-07T10:42:35.906Z,99533.33
2017-11-07T10:45:08.912Z,99531.88
2017-11-07T10:47:43.380Z,99533.94
2017-11-07T10:50:15.084Z,99533.95
2017-11-07T10:52:45.928Z,99523.07
2017-11-07T10:55:17.382Z,99519.19
2017-11-07T10:57:49.348Z,99521.51
2017-11-07T11:00:21.546Z,99525.61
2017-11-07T11:02:52.994Z,99529.05
2017-11-07T11:05:24.828Z,99526.45
2017-11-07T11:07:56.602Z,99525.12
2017-11-07T11:10:29.038Z,99514.36
2017-11-07T11:13:00.615Z,99513.37
2017-11-07T11:15:32.372Z,99508.41
2017-11-07T11:18:06.202Z,99499.17
2017-11-07T11:20:38.927Z,99503.00
2017-11-07T11:23:11.566Z,99504.96
2017-11-07T11:25:42.750Z,99508.55
2017-11-07T11:28:15.749Z,99495.77
2017-11-07T11:30:46.906Z,99495.23
2017-11-07T11:33:18.849Z,99489.41
2017-11-07T11:35:50.356Z,99486.68
2017-11-07T11:38:21.959Z,99483.09
2017-11-07T11:40:53.454Z,99475.08
2017-11-07T11:43:25.826Z,99484.08
2017-11-07T11:45:57.533Z,99479.84
2017-11-07T11:48:28.868Z,99473.05
2017-11-07T11:51:00.178Z,99473.96
2017-11-07T11:53:32.305Z,99468.44
2017-11-07T11:56:04.103Z,99468.91
2017-11-07T11:58:36.467Z,99468.96
2017-11-07T12:01:09.510Z,99458.99
2017-11-07T12:03:40.649Z,99459.28
2017-11-07T12:06:11.700Z,99450.80
2017-11-07T12:08:42.676Z,99446.94
2017-11-07T12:11:14.159Z,99439.48
2017-11-07T12:13:46.371Z,99445.70
2017-11-07T12:16:18.370Z,99438.59
2017-11-07T12:18:50.638Z,99437.70
2017-11-07T12:21:21.665Z,99429.81
2017-11-07T12:23:53.238Z,99426.15
2017-11-07T12:26:24.683Z,99420.00
2017-11-07T12:28:56.066Z,99421.34
2017-11-07T12:31:27.265Z,99417.05
2017-11-07T12:33:58.718Z,99415.87
2017-11-07T12:36:33.210Z,99413.50
2017-11-07T12:39:06.478Z,99408.63
2017-11-07T12:41:40.188Z,99397.30
2017-11-07T12:44:12.185Z,99395.49
2017-11-07T12:46:44.113Z,99392.84
2017-11-07T12:49:16.300Z,99393.89
2017-11-07T12:52:02.959Z,99393.66
2017-11-07T12:54:36.701Z,99381.54
2017-11-07T12:57:09.217Z,99380.50
2017-11-07T12:59:46.077Z,99372.62
2017-11-07T13:02:24.979Z,99369.05
2017-11-07T13:05:02.743Z,99371.97
2017-11-07T13:07:36.569Z,99372.93
2017-11-07T13:10:17.803Z,99369.06
2017-11-07T13:15:38.212Z,99373.69
2017-11-07T13:18:12.485Z,99370.31
2017-11-07T13:20:48.597Z,99369.55
2017-11-07T13:23:25.766Z,99370.12
2017-11-07T13:25:59.528Z,99362.22
2017-11-07T13:28:33.867Z,99359.91
2017-11-07T13:31:24.831Z,99359.06
2017-11-07T13:36:57.869Z,99355.16
2017-11-07T13:39:35.732Z,99348.67
2017-11-07T13:42:09.245Z,99349.42
2017-11-07T13:44:43.641Z,99355.41
2017-11-07T13:47:15.635Z,99349.25
2017-11-07T13:50:00.238Z,99343.85
2017-11-07T13:52:32.943Z,99345.23
2017-11-07T13:55:11.782Z,99342.30
2017-11-07T13:57:44.396Z,99343.31
2017-11-07T14:00:19.805Z,99335.50
2017-11-07T14:02:55.569Z,99342.81
2017-11-07T14:05:31.203Z,99343.38
2017-11-07T14:08:08.605Z,99333.55
2017-11-07T14:10:45.723Z,99334.94
2017-11-07T14:13:19.023Z,99332.66
2017-11-07T14:18:44.076Z,99336.47
2017-11-07T14:24:09.835Z,99331.93
2017-11-07T14:26:50.042Z,99328.20
2017-11-07T14:29:25.742Z,99330.14
2017-11-07T14:32:14.602Z,99330.52
2017-11-07T14:35:00.407Z,99327.30
2017-11-07T14:37:35.552Z,99323.30
2017-11-07T14:40:16.983Z,99322.07
2017-11-07T14:42:54.337Z,99320.66
2017-11-07T14:45:47.792Z,99319.44
2017-11-07T14:48:22.720Z,99316.31
2017-11-07T14:53:34.650Z,99309.52
2017-11-07T14:56:07.276Z,99315.33
2017-11-07T14:58:38.253Z,99305.28
2017-11-07T15:01:12.567Z,99309.04
2017-11-07T15:03:45.655Z,99301.09
2017-11-07T15:06:19.717Z,99307.02
2017-11-07T15:08:52.717Z,99302.31
2017-11-07T15:11:26.053Z,99301.53
2017-11-07T15:14:04.420Z,99300.47
2017-11-07T15:16:39.216Z,99301.98
2017-11-07T15:19:11.337Z,99296.18
2017-11-07T15:21:43.527Z,99292.59
2017-11-07T15:24:16.864Z,99284.30
2017-11-07T15:26:49.531Z,99278.58
2017-11-07T15:29:24.975Z,99275.79
2017-11-07T15:42:50.780Z,99273.09
2017-11-07T15:45:30.068Z,99274.69
2017-11-07T15:48:01.856Z,99277.73
2017-11-07T15:50:34.321Z,99268.81
2017-11-07T15:53:08.542Z,99273.77
2017-11-07T16:00:57.350Z,99263.56
2017-11-07T16:03:30.747Z,99262.98
2017-11-07T16:06:03.464Z,99259.59
2017-11-07T16:08:35.742Z,99267.17
2017-11-07T16:11:08.406Z,99268.59
2017-11-07T16:13:40.247Z,99268.75
2017-11-07T16:16:12.374Z,99273.89
2017-11-07T16:18:43.784Z,99268.00
2017-11-07T16:21:15.816Z,99263.41
2017-11-07T16:23:47.368Z,99260.72
2017-11-07T16:26:19.120Z,99265.57
2017-11-07T16:28:52.919Z,99266.26
2017-11-07T16:31:31.444Z,99266.95
2017-11-07T16:34:08.410Z,99263.34
2017-11-07T16:36:41.036Z,99256.80
2017-11-07T16:44:22.375Z,99247.75
2017-11-07T16:46:59.781Z,99250.27
2017-11-07T16:49:37.716Z,99252.45
2017-11-07T16:52:12.502Z,99245.82
2017-11-07T16:54:54.829Z,99241.75
2017-11-07T16:57:31.089Z,99245.34
2017-11-07T17:00:04.182Z,99240.42
2017-11-07T17:02:40.688Z,99244.81
2017-11-07T17:05:13.194Z,99238.69
2017-11-07T17:07:45.200Z,99230.48
2017-11-07T17:10:18.882Z,99243.25
2017-11-07T17:12:52.473Z,99239.05
2017-11-07T17:15:27.143Z,99242.55
2017-11-07T17:18:08.149Z,99233.92
2017-11-07T17:20:44.436Z,99228.27
2017-11-07T17:23:15.691Z,99229.69
2017-11-07T17:25:49.437Z,99225.67
2017-11-07T17:28:25.805Z,99224.30
2017-11-07T17:30:57.163Z,99222.08
2017-11-07T17:33:32.533Z,99221.16
2017-11-07T17:36:40.250Z,99217.67
2017-11-07T17:42:00.994Z,99214.63
2017-11-07T17:44:37.082Z,99208.86
2017-11-07T17:47:11.476Z,99203.58
2017-11-07T17:49:45.122Z,99205.84
2017-11-07T17:52:21.365Z,99205.95
2017-11-07T17:55:00.809Z,99200.59
2017-11-07T17:57:47.708Z,99204.34
2017-11-07T18:00:27.054Z,99194.13
2017-11-07T18:05:46.484Z,99196.72
2017-11-07T18:08:20.308Z,99193.16
2017-11-07T18:10:53.000Z,99192.27
2017-11-07T18:13:30.047Z,99197.25
2017-11-07T18:16:11.063Z,99185.56
2017-11-07T18:18:43.395Z,99185.30
2017-11-07T18:24:06.697Z,99178.36
2017-11-07T18:26:50.811Z,99167.36
2017-11-07T18:29:31.097Z,99169.23
2017-11-07T18:32:12.078Z,99170.39
2017-11-07T18:35:04.817Z,99165.42
2017-11-07T18:37:39.541Z,99157.44
2017-11-07T18:40:15.888Z,99159.23
2017-11-07T18:42:48.574Z,99144.31
2017-11-07T18:45:23.690Z,99158.75
2017-11-07T18:47:57.377Z,99146.23
2017-11-07T18:50:31.132Z,99149.34
2017-11-07T18:53:04.286Z,99148.42
2017-11-07T18:55:36.744Z,99149.69
2017-11-07T18:58:12.088Z,99147.17
2017-11-07T19:00:47.461Z,99143.04
2017-11-07T19:03:21.396Z,99138.91
2017-11-07T19:05:55.277Z,99143.89
2017-11-07T19:08:28.024Z,99143.22
2017-11-07T19:11:14.062Z,99142.22
2017-11-07T19:13:45.506Z,99139.57
2017-11-07T19:16:19.195Z,99143.38
2017-11-07T19:18:53.148Z,99150.16
2017-11-07T19:21:27.295Z,99141.98
2017-11-07T19:24:00.475Z,99146.50
2017-11-07T19:26:32.536Z,99144.59
2017-11-07T19:29:07.724Z,99141.86
2017-11-07T19:31:40.016Z,99143.70
2017-11-07T19:34:12.217Z,99139.78
2017-11-07T19:36:44.401Z,99148.63
2017-11-07T19:39:17.737Z,99146.03
2017-11-07T19:41:52.480Z,99143.33
2017-11-07T19:44:31.789Z,99137.20
2017-11-07T19:47:05.650Z,99141.12
2017-11-07T19:49:42.623Z,99128.90
2017-11-07T19:52:16.175Z,99126.20
2017-11-07T19:54:50.385Z,99128.05
2017-11-07T19:57:23.091Z,99134.19
2017-11-07T19:59:56.373Z,99134.44
2017-11-07T20:02:27.623Z,99134.75
2017-11-07T20:04:59.548Z,99135.46
2017-11-07T20:07:30.675Z,99130.70
2017-11-07T20:10:04.780Z,99129.16
2017-11-07T20:12:36.167Z,99131.16
2017-11-07T20:15:12.477Z,99134.39
2017-11-07T20:17:45.405Z,99132.59
2017-11-07T20:20:17.641Z,99123.85
2017-11-07T20:22:50.797Z,99121.09
2017-11-07T20:25:24.597Z,99118.88
2017-11-07T20:27:58.740Z,99120.20
2017-11-07T20:30:30.219Z,99125.24
2017-11-07T20:33:01.836Z,99122.12
2017-11-07T20:35:32.932Z,99121.44
2017-11-07T20:38:04.889Z,99117.67
2017-11-07T20:40:36.598Z,99113.10
2017-11-07T20:43:11.107Z,99108.87
2017-11-07T20:45:43.208Z,99105.42
2017-11-07T20:48:14.659Z,99101.67
2017-11-07T20:50:47.371Z,99092.29
2017-11-07T20:53:22.989Z,99091.20
2017-11-07T20:55:54.081Z,99093.91
2017-11-07T20:58:29.458Z,99096.16
2017-11-07T21:01:03.189Z,99096.27
2017-11-07T21:03:39.882Z,99089.11
2017-11-07T21:06:11.353Z,99089.60
2017-11-07T21:08:44.702Z,99090.56
2017-11-07T21:11:17.168Z,99094.42
2017-11-07T21:13:48.402Z,99096.02
2017-11-07T21:16:23.567Z,99092.21
2017-11-07T21:18:55.325Z,99083.59
2017-11-07T21:21:27.275Z,99091.53
2017-11-07T21:24:00.447Z,99078.67
2017-11-07T21:26:35.215Z,99078.62
2017-11-07T21:29:14.891Z,99079.88
2017-11-07T21:31:50.841Z,99075.55
2017-11-07T21:34:26.915Z,99070.77
2017-11-07T21:37:05.679Z,99070.83
2017-11-07T21:39:39.765Z,99065.28
2017-11-07T21:42:17.218Z,99060.19
2017-11-07T21:45:00.676Z,99062.58
2017-11-07T21:47:45.465Z,99058.55
2017-11-07T21:50:19.251Z,99058.69
2017-11-07T21:52:51.326Z,99062.64
2017-11-07T21:55:23.575Z,99063.56
2017-11-07T21:57:57.337Z,99056.58
2017-11-07T22:00:29.331Z,99057.25
2017-11-07T22:03:00.773Z,99053.56
2017-11-07T22:05:32.031Z,99048.22
2017-11-07T22:08:06.709Z,99046.53
2017-11-07T22:10:38.620Z,99043.63
2017-11-07T22:13:10.744Z,99046.70
2017-11-07T22:15:44.042Z,99041.97
2017-11-07T22:18:18.266Z,99031.80
2017-11-07T22:20:49.826Z,99044.72
2017-11-07T22:23:27.311Z,99036.13
2017-11-07T22:25:58.657Z,99031.38
2017-11-07T22:28:31.442Z,99026.37
2017-11-07T22:31:03.511Z,99025.72
2017-11-07T22:33:35.475Z,99021.92
2017-11-07T22:36:07.976Z,99013.07
2017-11-07T22:38:42.311Z,99019.32
2017-11-07T22:41:14.262Z,99010.31
2017-11-07T22:43:46.500Z,99016.81
2017-11-07T22:46:18.353Z,99009.05
2017-11-07T22:48:49.262Z,99009.58
2017-11-07T22:51:22.119Z,99002.37
2017-11-07T22:53:54.287Z,99004.96
2017-11-07T22:56:25.402Z,99004.97
2017-11-07T22:58:58.770Z,99004.66
2017-11-07T23:01:36.812Z,99005.08
2017-11-07T23:04:10.737Z,98996.83
2017-11-07T23:06:44.652Z,99004.97
2017-11-07T23:09:23.908Z,99002.75
2017-11-07T23:14:49.204Z,99004.41
2017-11-07T23:17:22.556Z,99003.81
2017-11-07T23:20:01.023Z,99002.92
2017-11-07T23:22:35.418Z,99005.84
2017-11-07T23:25:13.567Z,99006.35
2017-11-07T23:27:45.339Z,99009.66
2017-11-07T23:30:21.184Z,99003.34
2017-11-07T23:32:53.106Z,99009.06
2017-11-07T23:35:24.420Z,99012.13
2017-11-07T23:37:59.594Z,99018.44
2017-11-07T23:40:33.792Z,99015.06
2017-11-07T23:43:05.960Z,99009.87
2017-11-07T23:51:42.785Z,99018.55
2017-11-07T23:54:21.087Z,99017.05
2017-11-07T23:56:52.459Z,99029.80
2017-11-07T23:59:30.578Z,99028.23
